sensor_id;sensor_type;location;lat;lon;timestamp;P1;durP1;ratioP1;P2;durP2;ratioP2
46719;SDS011;32452;51.382;-0.002;2023-03-24T00:00:39;9.60;;;1.80;;
46719;SDS011;32452;51.382;-0.002;2023-03-24T00:03:24;11.43;;;2.38;;
46719;SDS011;32452;51.382;-0.002;2023-03-24T00:06:11;11.98;;;2.58;;
46719;SDS011;32452;51.382;-0.002;2023-03-24T00:09:02;11.50;;;1.85;;
46719;SDS011;32452;51.382;-0.002;2023-03-24T00:11:48;12.00;;;3.20;;
46719;SDS011;32452;51.382;-0.002;2023-03-24T00:14:34;14.05;;;2.42;;
46719;SDS011;32452;51.382;-0.002;2023-03-24T00:17:22;12.60;;;3.08;;
46719;SDS011;32452;51.382;-0.002;2023-03-24T00:20:10;13.93;;;2.92;;
46719;SDS011;32452;51.382;-0.002;2023-03-24T00:22:58;13.95;;;2.78;;
46719;SDS011;32452;51.382;-0.002;2023-03-24T00:25:44;15.63;;;3.88;;
46719;SDS011;32452;51.382;-0.002;2023-03-24T00:28:33;18.45;;;4.25;;
46719;SDS011;32452;51.382;-0.002;2023-03-24T00:31:20;17.08;;;4.22;;
46719;SDS011;32452;51.382;-0.002;2023-03-24T00:34:07;20.27;;;3.67;;
46719;SDS011;32452;51.382;-0.002;2023-03-24T00:36:54;14.82;;;3.72;;
46719;SDS011;32452;51.382;-0.002;2023-03-24T00:39:40;21.20;;;3.50;;
46719;SDS011;32452;51.382;-0.002;2023-03-24T00:42:26;21.48;;;3.65;;
46719;SDS011;32452;51.382;-0.002;2023-03-24T00:45:13;25.40;;;5.63;;
46719;SDS011;32452;51.382;-0.002;2023-03-24T00:48:02;16.15;;;2.88;;
46719;SDS011;32452;51.382;-0.002;2023-03-24T00:50:50;22.25;;;5.22;;
46719;SDS011;32452;51.382;-0.002;2023-03-24T00:53:36;21.58;;;4.00;;
46719;SDS011;32452;51.382;-0.002;2023-03-24T00:56:28;18.42;;;3.55;;
46719;SDS011;32452;51.382;-0.002;2023-03-24T00:59:15;21.40;;;3.17;;
46719;SDS011;32452;51.382;-0.002;2023-03-24T01:02:00;19.80;;;4.10;;
46719;SDS011;32452;51.382;-0.002;2023-03-24T01:04:47;22.27;;;3.38;;
46719;SDS011;32452;51.382;-0.002;2023-03-24T01:07:43;27.77;;;6.05;;
46719;SDS011;32452;51.382;-0.002;2023-03-24T01:10:30;17.80;;;2.90;;
46719;SDS011;32452;51.382;-0.002;2023-03-24T01:13:27;28.38;;;6.20;;
46719;SDS011;32452;51.382;-0.002;2023-03-24T01:16:13;20.25;;;3.33;;
46719;SDS011;32452;51.382;-0.002;2023-03-24T01:18:59;21.60;;;4.15;;
46719;SDS011;32452;51.382;-0.002;2023-03-24T01:21:45;23.38;;;3.80;;
46719;SDS011;32452;51.382;-0.002;2023-03-24T01:24:34;27.52;;;4.65;;
46719;SDS011;32452;51.382;-0.002;2023-03-24T01:27:21;25.23;;;4.30;;
46719;SDS011;32452;51.382;-0.002;2023-03-24T01:30:07;26.02;;;3.97;;
46719;SDS011;32452;51.382;-0.002;2023-03-24T01:32:56;17.52;;;3.20;;
46719;SDS011;32452;51.382;-0.002;2023-03-24T01:35:42;26.85;;;4.70;;
46719;SDS011;32452;51.382;-0.002;2023-03-24T01:38:28;17.30;;;3.22;;
46719;SDS011;32452;51.382;-0.002;2023-03-24T01:41:14;16.08;;;3.25;;
46719;SDS011;32452;51.382;-0.002;2023-03-24T01:44:00;26.10;;;4.40;;
46719;SDS011;32452;51.382;-0.002;2023-03-24T01:47:06;20.55;;;3.03;;
46719;SDS011;32452;51.382;-0.002;2023-03-24T01:49:53;24.35;;;4.78;;
46719;SDS011;32452;51.382;-0.002;2023-03-24T01:52:44;20.90;;;4.38;;
46719;SDS011;32452;51.382;-0.002;2023-03-24T01:55:30;17.10;;;3.83;;
46719;SDS011;32452;51.382;-0.002;2023-03-24T01:58:16;21.85;;;4.10;;
46719;SDS011;32452;51.382;-0.002;2023-03-24T02:01:02;18.48;;;3.20;;
46719;SDS011;32452;51.382;-0.002;2023-03-24T02:03:49;15.70;;;2.90;;
46719;SDS011;32452;51.382;-0.002;2023-03-24T02:06:38;19.00;;;2.60;;
46719;SDS011;32452;51.382;-0.002;2023-03-24T02:09:28;26.30;;;4.88;;
46719;SDS011;32452;51.382;-0.002;2023-03-24T02:12:13;14.43;;;2.83;;
46719;SDS011;32452;51.382;-0.002;2023-03-24T02:15:00;26.35;;;3.50;;
46719;SDS011;32452;51.382;-0.002;2023-03-24T02:21:34;24.23;;;3.78;;
46719;SDS011;32452;51.382;-0.002;2023-03-24T02:40:25;21.77;;;4.05;;
46719;SDS011;32452;51.382;-0.002;2023-03-24T02:43:23;16.50;;;3.10;;
46719;SDS011;32452;51.382;-0.002;2023-03-24T02:46:27;25.70;;;4.53;;
46719;SDS011;32452;51.382;-0.002;2023-03-24T02:55:20;28.17;;;4.10;;
46719;SDS011;32452;51.382;-0.002;2023-03-24T02:58:18;25.52;;;3.55;;
46719;SDS011;32452;51.382;-0.002;2023-03-24T03:01:22;24.25;;;4.15;;
46719;SDS011;32452;51.382;-0.002;2023-03-24T03:04:17;28.80;;;5.72;;
46719;SDS011;32452;51.382;-0.002;2023-03-24T03:07:07;26.17;;;5.13;;
46719;SDS011;32452;51.382;-0.002;2023-03-24T03:10:00;26.52;;;4.95;;
46719;SDS011;32452;51.382;-0.002;2023-03-24T03:14:00;24.65;;;5.63;;
46719;SDS011;32452;51.382;-0.002;2023-03-24T03:16:47;18.52;;;4.35;;
46719;SDS011;32452;51.382;-0.002;2023-03-24T03:19:53;29.25;;;4.88;;
46719;SDS011;32452;51.382;-0.002;2023-03-24T03:22:52;25.90;;;4.55;;
46719;SDS011;32452;51.382;-0.002;2023-03-24T03:25:43;32.72;;;4.18;;
46719;SDS011;32452;51.382;-0.002;2023-03-24T03:28:35;26.30;;;4.20;;
46719;SDS011;32452;51.382;-0.002;2023-03-24T03:31:31;23.95;;;4.15;;
46719;SDS011;32452;51.382;-0.002;2023-03-24T03:34:37;23.38;;;4.35;;
46719;SDS011;32452;51.382;-0.002;2023-03-24T03:37:49;26.98;;;5.50;;
46719;SDS011;32452;51.382;-0.002;2023-03-24T03:40:59;27.55;;;5.68;;
46719;SDS011;32452;51.382;-0.002;2023-03-24T03:43:47;25.73;;;3.90;;
46719;SDS011;32452;51.382;-0.002;2023-03-24T03:46:34;28.02;;;4.38;;
46719;SDS011;32452;51.382;-0.002;2023-03-24T03:49:20;26.48;;;5.28;;
46719;SDS011;32452;51.382;-0.002;2023-03-24T03:52:07;22.83;;;5.65;;
46719;SDS011;32452;51.382;-0.002;2023-03-24T03:54:53;31.95;;;5.13;;
46719;SDS011;32452;51.382;-0.002;2023-03-24T03:57:39;32.22;;;4.97;;
46719;SDS011;32452;51.382;-0.002;2023-03-24T04:00:25;37.90;;;6.25;;
46719;SDS011;32452;51.382;-0.002;2023-03-24T04:03:15;29.48;;;5.95;;
46719;SDS011;32452;51.382;-0.002;2023-03-24T04:06:17;26.65;;;5.72;;
46719;SDS011;32452;51.382;-0.002;2023-03-24T04:15:38;26.77;;;6.10;;
46719;SDS011;32452;51.382;-0.002;2023-03-24T04:25:12;36.42;;;5.63;;
46719;SDS011;32452;51.382;-0.002;2023-03-24T04:28:21;36.28;;;5.10;;
46719;SDS011;32452;51.382;-0.002;2023-03-24T04:31:50;31.55;;;5.18;;
46719;SDS011;32452;51.382;-0.002;2023-03-24T04:34:43;30.98;;;5.78;;
46719;SDS011;32452;51.382;-0.002;2023-03-24T04:37:34;31.05;;;4.63;;
46719;SDS011;32452;51.382;-0.002;2023-03-24T04:40:23;28.08;;;4.82;;
46719;SDS011;32452;51.382;-0.002;2023-03-24T04:43:14;34.85;;;5.45;;
46719;SDS011;32452;51.382;-0.002;2023-03-24T04:46:06;34.17;;;4.95;;
46719;SDS011;32452;51.382;-0.002;2023-03-24T04:48:53;25.83;;;5.03;;
46719;SDS011;32452;51.382;-0.002;2023-03-24T04:51:38;26.10;;;4.50;;
46719;SDS011;32452;51.382;-0.002;2023-03-24T04:54:24;31.30;;;6.20;;
46719;SDS011;32452;51.382;-0.002;2023-03-24T04:57:09;27.08;;;5.32;;
46719;SDS011;32452;51.382;-0.002;2023-03-24T04:59:55;29.60;;;5.97;;
46719;SDS011;32452;51.382;-0.002;2023-03-24T05:02:41;27.15;;;6.00;;
46719;SDS011;32452;51.382;-0.002;2023-03-24T05:05:28;38.45;;;5.38;;
46719;SDS011;32452;51.382;-0.002;2023-03-24T05:08:15;25.45;;;4.70;;
46719;SDS011;32452;51.382;-0.002;2023-03-24T05:11:01;31.27;;;6.63;;
46719;SDS011;32452;51.382;-0.002;2023-03-24T05:13:47;30.33;;;5.95;;
46719;SDS011;32452;51.382;-0.002;2023-03-24T05:16:32;31.38;;;5.10;;
46719;SDS011;32452;51.382;-0.002;2023-03-24T05:19:18;33.65;;;5.00;;
46719;SDS011;32452;51.382;-0.002;2023-03-24T05:22:04;32.08;;;4.75;;
46719;SDS011;32452;51.382;-0.002;2023-03-24T05:24:51;25.05;;;5.35;;
46719;SDS011;32452;51.382;-0.002;2023-03-24T05:27:36;35.53;;;6.13;;
46719;SDS011;32452;51.382;-0.002;2023-03-24T05:30:22;37.50;;;6.85;;
46719;SDS011;32452;51.382;-0.002;2023-03-24T05:33:08;30.98;;;4.53;;
46719;SDS011;32452;51.382;-0.002;2023-03-24T05:35:54;31.55;;;5.55;;
46719;SDS011;32452;51.382;-0.002;2023-03-24T05:38:40;30.85;;;6.57;;
46719;SDS011;32452;51.382;-0.002;2023-03-24T05:41:28;30.77;;;5.25;;
46719;SDS011;32452;51.382;-0.002;2023-03-24T05:44:14;22.83;;;3.67;;
46719;SDS011;32452;51.382;-0.002;2023-03-24T05:47:00;22.10;;;4.38;;
46719;SDS011;32452;51.382;-0.002;2023-03-24T05:49:46;40.40;;;6.35;;
46719;SDS011;32452;51.382;-0.002;2023-03-24T05:52:32;31.63;;;5.55;;
46719;SDS011;32452;51.382;-0.002;2023-03-24T05:55:18;33.05;;;5.40;;
46719;SDS011;32452;51.382;-0.002;2023-03-24T05:58:05;24.92;;;5.60;;
46719;SDS011;32452;51.382;-0.002;2023-03-24T06:00:50;34.42;;;6.32;;
46719;SDS011;32452;51.382;-0.002;2023-03-24T06:03:36;32.50;;;6.32;;
46719;SDS011;32452;51.382;-0.002;2023-03-24T06:06:25;28.52;;;5.10;;
46719;SDS011;32452;51.382;-0.002;2023-03-24T06:09:12;32.75;;;5.60;;
46719;SDS011;32452;51.382;-0.002;2023-03-24T06:12:02;30.23;;;4.28;;
46719;SDS011;32452;51.382;-0.002;2023-03-24T06:14:48;27.35;;;4.18;;
46719;SDS011;32452;51.382;-0.002;2023-03-24T06:17:34;26.95;;;5.35;;
46719;SDS011;32452;51.382;-0.002;2023-03-24T06:20:21;32.17;;;5.88;;
46719;SDS011;32452;51.382;-0.002;2023-03-24T06:23:06;31.70;;;4.97;;
46719;SDS011;32452;51.382;-0.002;2023-03-24T06:25:52;29.67;;;4.65;;
46719;SDS011;32452;51.382;-0.002;2023-03-24T06:28:39;24.23;;;4.82;;
46719;SDS011;32452;51.382;-0.002;2023-03-24T06:31:26;26.33;;;4.28;;
46719;SDS011;32452;51.382;-0.002;2023-03-24T06:34:14;28.05;;;4.90;;
46719;SDS011;32452;51.382;-0.002;2023-03-24T06:36:59;33.42;;;3.97;;
46719;SDS011;32452;51.382;-0.002;2023-03-24T06:39:45;34.72;;;5.53;;
46719;SDS011;32452;51.382;-0.002;2023-03-24T06:42:30;23.80;;;4.13;;
46719;SDS011;32452;51.382;-0.002;2023-03-24T06:45:16;25.20;;;4.55;;
46719;SDS011;32452;51.382;-0.002;2023-03-24T06:48:02;26.38;;;3.95;;
46719;SDS011;32452;51.382;-0.002;2023-03-24T06:50:48;25.23;;;4.85;;
46719;SDS011;32452;51.382;-0.002;2023-03-24T06:53:33;28.38;;;4.53;;
46719;SDS011;32452;51.382;-0.002;2023-03-24T06:56:19;28.98;;;4.75;;
46719;SDS011;32452;51.382;-0.002;2023-03-24T06:59:05;30.23;;;4.78;;
46719;SDS011;32452;51.382;-0.002;2023-03-24T07:01:51;53.60;;;6.22;;
46719;SDS011;32452;51.382;-0.002;2023-03-24T07:04:37;26.30;;;4.68;;
46719;SDS011;32452;51.382;-0.002;2023-03-24T07:07:22;25.42;;;5.10;;
46719;SDS011;32452;51.382;-0.002;2023-03-24T07:10:11;17.40;;;3.78;;
46719;SDS011;32452;51.382;-0.002;2023-03-24T07:12:58;29.45;;;5.28;;
46719;SDS011;32452;51.382;-0.002;2023-03-24T07:15:45;27.58;;;4.13;;
46719;SDS011;32452;51.382;-0.002;2023-03-24T07:18:30;24.42;;;4.05;;
46719;SDS011;32452;51.382;-0.002;2023-03-24T07:21:16;27.55;;;5.22;;
46719;SDS011;32452;51.382;-0.002;2023-03-24T07:24:02;22.63;;;4.32;;
46719;SDS011;32452;51.382;-0.002;2023-03-24T07:26:48;19.75;;;5.95;;
46719;SDS011;32452;51.382;-0.002;2023-03-24T07:29:33;25.63;;;5.13;;
46719;SDS011;32452;51.382;-0.002;2023-03-24T07:32:19;33.03;;;6.45;;
46719;SDS011;32452;51.382;-0.002;2023-03-24T07:35:06;22.33;;;4.40;;
46719;SDS011;32452;51.382;-0.002;2023-03-24T07:37:59;25.23;;;4.05;;
46719;SDS011;32452;51.382;-0.002;2023-03-24T07:40:45;26.90;;;4.32;;
46719;SDS011;32452;51.382;-0.002;2023-03-24T07:43:31;24.83;;;4.97;;
46719;SDS011;32452;51.382;-0.002;2023-03-24T07:46:17;27.00;;;4.63;;
46719;SDS011;32452;51.382;-0.002;2023-03-24T07:49:03;25.02;;;3.88;;
46719;SDS011;32452;51.382;-0.002;2023-03-24T07:52:03;19.55;;;3.90;;
46719;SDS011;32452;51.382;-0.002;2023-03-24T07:54:50;23.17;;;4.22;;
46719;SDS011;32452;51.382;-0.002;2023-03-24T07:57:36;20.50;;;4.70;;
46719;SDS011;32452;51.382;-0.002;2023-03-24T08:00:25;19.13;;;4.60;;
46719;SDS011;32452;51.382;-0.002;2023-03-24T08:03:13;27.67;;;3.60;;
46719;SDS011;32452;51.382;-0.002;2023-03-24T08:05:59;23.45;;;4.43;;
46719;SDS011;32452;51.382;-0.002;2023-03-24T08:08:45;26.20;;;4.60;;
46719;SDS011;32452;51.382;-0.002;2023-03-24T08:11:31;27.35;;;4.22;;
46719;SDS011;32452;51.382;-0.002;2023-03-24T08:14:17;19.35;;;3.97;;
46719;SDS011;32452;51.382;-0.002;2023-03-24T08:17:03;18.73;;;3.28;;
46719;SDS011;32452;51.382;-0.002;2023-03-24T08:19:48;17.90;;;4.10;;
46719;SDS011;32452;51.382;-0.002;2023-03-24T08:22:45;19.13;;;3.28;;
46719;SDS011;32452;51.382;-0.002;2023-03-24T08:25:38;19.25;;;4.55;;
46719;SDS011;32452;51.382;-0.002;2023-03-24T08:28:23;16.17;;;2.92;;
46719;SDS011;32452;51.382;-0.002;2023-03-24T08:31:09;16.88;;;3.53;;
46719;SDS011;32452;51.382;-0.002;2023-03-24T08:33:55;21.42;;;4.50;;
46719;SDS011;32452;51.382;-0.002;2023-03-24T08:36:42;20.23;;;3.45;;
46719;SDS011;32452;51.382;-0.002;2023-03-24T08:39:27;19.05;;;5.35;;
46719;SDS011;32452;51.382;-0.002;2023-03-24T08:42:16;13.73;;;3.25;;
46719;SDS011;32452;51.382;-0.002;2023-03-24T08:45:02;16.00;;;3.42;;
46719;SDS011;32452;51.382;-0.002;2023-03-24T08:47:49;16.30;;;2.70;;
46719;SDS011;32452;51.382;-0.002;2023-03-24T08:50:37;18.80;;;3.88;;
46719;SDS011;32452;51.382;-0.002;2023-03-24T08:53:28;14.50;;;4.20;;
46719;SDS011;32452;51.382;-0.002;2023-03-24T08:56:18;21.08;;;4.00;;
46719;SDS011;32452;51.382;-0.002;2023-03-24T08:59:04;20.48;;;3.75;;
46719;SDS011;32452;51.382;-0.002;2023-03-24T09:01:50;13.85;;;3.83;;
46719;SDS011;32452;51.382;-0.002;2023-03-24T09:04:37;19.88;;;5.40;;
46719;SDS011;32452;51.382;-0.002;2023-03-24T09:07:23;15.07;;;4.07;;
46719;SDS011;32452;51.382;-0.002;2023-03-24T09:10:09;17.13;;;3.42;;
46719;SDS011;32452;51.382;-0.002;2023-03-24T09:12:57;18.63;;;4.57;;
46719;SDS011;32452;51.382;-0.002;2023-03-24T09:15:50;18.52;;;4.57;;
46719;SDS011;32452;51.382;-0.002;2023-03-24T09:18:39;18.60;;;4.63;;
46719;SDS011;32452;51.382;-0.002;2023-03-24T09:21:25;16.13;;;4.60;;
46719;SDS011;32452;51.382;-0.002;2023-03-24T09:24:11;17.45;;;4.38;;
46719;SDS011;32452;51.382;-0.002;2023-03-24T09:26:57;15.68;;;3.47;;
46719;SDS011;32452;51.382;-0.002;2023-03-24T09:29:43;16.95;;;3.42;;
46719;SDS011;32452;51.382;-0.002;2023-03-24T09:32:28;16.05;;;3.38;;
46719;SDS011;32452;51.382;-0.002;2023-03-24T09:35:14;16.63;;;3.47;;
46719;SDS011;32452;51.382;-0.002;2023-03-24T09:38:00;14.38;;;3.25;;
46719;SDS011;32452;51.382;-0.002;2023-03-24T09:40:47;18.70;;;3.08;;
46719;SDS011;32452;51.382;-0.002;2023-03-24T09:50:20;19.17;;;3.28;;
46719;SDS011;32452;51.382;-0.002;2023-03-24T09:56:22;17.27;;;3.90;;
46719;SDS011;32452;51.382;-0.002;2023-03-24T09:59:12;13.65;;;3.30;;
46719;SDS011;32452;51.382;-0.002;2023-03-24T10:02:15;16.25;;;2.88;;
46719;SDS011;32452;51.382;-0.002;2023-03-24T10:05:10;15.88;;;3.83;;
46719;SDS011;32452;51.382;-0.002;2023-03-24T10:08:09;12.27;;;2.90;;
46719;SDS011;32452;51.382;-0.002;2023-03-24T10:11:33;15.15;;;3.60;;
46719;SDS011;32452;51.382;-0.002;2023-03-24T10:14:30;17.08;;;3.88;;
46719;SDS011;32452;51.382;-0.002;2023-03-24T10:29:08;17.05;;;3.53;;
46719;SDS011;32452;51.382;-0.002;2023-03-24T10:32:20;17.67;;;3.80;;
46719;SDS011;32452;51.382;-0.002;2023-03-24T10:35:13;16.50;;;2.80;;
46719;SDS011;32452;51.382;-0.002;2023-03-24T10:38:29;19.48;;;3.22;;
46719;SDS011;32452;51.382;-0.002;2023-03-24T10:41:19;12.98;;;2.53;;
46719;SDS011;32452;51.382;-0.002;2023-03-24T10:44:05;12.00;;;2.10;;
46719;SDS011;32452;51.382;-0.002;2023-03-24T10:46:53;11.82;;;2.20;;
46719;SDS011;32452;51.382;-0.002;2023-03-24T10:50:15;10.50;;;2.58;;
46719;SDS011;32452;51.382;-0.002;2023-03-24T10:52:58;14.38;;;1.83;;
46719;SDS011;32452;51.382;-0.002;2023-03-24T10:55:44;16.55;;;2.47;;
46719;SDS011;32452;51.382;-0.002;2023-03-24T10:58:36;9.45;;;2.83;;
46719;SDS011;32452;51.382;-0.002;2023-03-24T11:01:24;11.40;;;2.20;;
46719;SDS011;32452;51.382;-0.002;2023-03-24T11:04:15;9.10;;;1.50;;
46719;SDS011;32452;51.382;-0.002;2023-03-24T11:07:04;13.13;;;2.63;;
46719;SDS011;32452;51.382;-0.002;2023-03-24T11:12:59;7.65;;;1.48;;
46719;SDS011;32452;51.382;-0.002;2023-03-24T11:15:52;11.32;;;2.00;;
46719;SDS011;32452;51.382;-0.002;2023-03-24T11:21:42;11.98;;;2.08;;
46719;SDS011;32452;51.382;-0.002;2023-03-24T11:24:28;12.73;;;2.63;;
46719;SDS011;32452;51.382;-0.002;2023-03-24T11:27:15;7.00;;;1.85;;
46719;SDS011;32452;51.382;-0.002;2023-03-24T11:30:02;14.60;;;2.45;;
46719;SDS011;32452;51.382;-0.002;2023-03-24T11:32:49;9.52;;;1.75;;
46719;SDS011;32452;51.382;-0.002;2023-03-24T11:35:39;9.65;;;1.75;;
46719;SDS011;32452;51.382;-0.002;2023-03-24T11:38:27;8.43;;;1.90;;
46719;SDS011;32452;51.382;-0.002;2023-03-24T11:41:18;12.57;;;2.15;;
46719;SDS011;32452;51.382;-0.002;2023-03-24T11:47:03;12.35;;;2.13;;
46719;SDS011;32452;51.382;-0.002;2023-03-24T11:53:06;8.25;;;1.88;;
46719;SDS011;32452;51.382;-0.002;2023-03-24T12:04:52;10.65;;;2.80;;
46719;SDS011;32452;51.382;-0.002;2023-03-24T12:13:52;9.55;;;2.03;;
46719;SDS011;32452;51.382;-0.002;2023-03-24T12:23:12;11.10;;;2.10;;
46719;SDS011;32452;51.382;-0.002;2023-03-24T12:32:45;10.27;;;2.72;;
46719;SDS011;32452;51.382;-0.002;2023-03-24T12:39:06;14.88;;;2.83;;
46719;SDS011;32452;51.382;-0.002;2023-03-24T12:45:01;9.10;;;2.00;;
46719;SDS011;32452;51.382;-0.002;2023-03-24T12:51:30;15.27;;;2.85;;
46719;SDS011;32452;51.382;-0.002;2023-03-24T12:57:51;11.55;;;2.10;;
46719;SDS011;32452;51.382;-0.002;2023-03-24T13:03:47;10.75;;;2.28;;
46719;SDS011;32452;51.382;-0.002;2023-03-24T13:07:07;15.05;;;2.10;;
46719;SDS011;32452;51.382;-0.002;2023-03-24T13:09:56;13.38;;;2.65;;
46719;SDS011;32452;51.382;-0.002;2023-03-24T13:12:55;12.75;;;2.40;;
46719;SDS011;32452;51.382;-0.002;2023-03-24T13:15:50;9.23;;;2.08;;
46719;SDS011;32452;51.382;-0.002;2023-03-24T13:18:56;13.10;;;1.92;;
46719;SDS011;32452;51.382;-0.002;2023-03-24T13:21:46;9.77;;;2.20;;
46719;SDS011;32452;51.382;-0.002;2023-03-24T13:24:33;11.20;;;1.98;;
46719;SDS011;32452;51.382;-0.002;2023-03-24T13:27:21;7.32;;;2.30;;
46719;SDS011;32452;51.382;-0.002;2023-03-24T13:30:31;9.60;;;2.60;;
46719;SDS011;32452;51.382;-0.002;2023-03-24T13:33:16;16.88;;;2.83;;
46719;SDS011;32452;51.382;-0.002;2023-03-24T13:36:13;15.45;;;2.60;;
46719;SDS011;32452;51.382;-0.002;2023-03-24T13:39:10;7.60;;;1.80;;
46719;SDS011;32452;51.382;-0.002;2023-03-24T13:42:00;12.32;;;2.03;;
46719;SDS011;32452;51.382;-0.002;2023-03-24T13:44:47;9.77;;;2.08;;
46719;SDS011;32452;51.382;-0.002;2023-03-24T13:47:48;11.52;;;2.90;;
46719;SDS011;32452;51.382;-0.002;2023-03-24T13:57:07;11.35;;;2.55;;
46719;SDS011;32452;51.382;-0.002;2023-03-24T14:00:16;12.77;;;2.30;;
46719;SDS011;32452;51.382;-0.002;2023-03-24T14:03:11;16.75;;;2.30;;
46719;SDS011;32452;51.382;-0.002;2023-03-24T14:06:00;19.23;;;2.75;;
46719;SDS011;32452;51.382;-0.002;2023-03-24T14:08:54;14.77;;;3.90;;
46719;SDS011;32452;51.382;-0.002;2023-03-24T14:11:48;11.20;;;2.50;;
46719;SDS011;32452;51.382;-0.002;2023-03-24T14:15:08;16.27;;;3.00;;
46719;SDS011;32452;51.382;-0.002;2023-03-24T14:21:10;12.38;;;2.50;;
46719;SDS011;32452;51.382;-0.002;2023-03-24T14:23:56;14.73;;;2.20;;
46719;SDS011;32452;51.382;-0.002;2023-03-24T14:26:43;15.70;;;3.42;;
46719;SDS011;32452;51.382;-0.002;2023-03-24T14:29:40;12.57;;;2.60;;
46719;SDS011;32452;51.382;-0.002;2023-03-24T14:32:39;10.00;;;1.90;;
46719;SDS011;32452;51.382;-0.002;2023-03-24T14:38:28;9.63;;;2.22;;
46719;SDS011;32452;51.382;-0.002;2023-03-24T14:41:25;12.25;;;2.03;;
46719;SDS011;32452;51.382;-0.002;2023-03-24T14:44:12;13.63;;;2.72;;
46719;SDS011;32452;51.382;-0.002;2023-03-24T14:46:58;9.95;;;2.00;;
46719;SDS011;32452;51.382;-0.002;2023-03-24T14:49:44;8.35;;;1.88;;
46719;SDS011;32452;51.382;-0.002;2023-03-24T14:52:49;14.30;;;2.33;;
46719;SDS011;32452;51.382;-0.002;2023-03-24T14:55:37;11.07;;;2.80;;
46719;SDS011;32452;51.382;-0.002;2023-03-24T14:58:25;8.48;;;1.83;;
46719;SDS011;32452;51.382;-0.002;2023-03-24T15:01:18;11.30;;;1.88;;
46719;SDS011;32452;51.382;-0.002;2023-03-24T15:04:06;9.93;;;2.00;;
46719;SDS011;32452;51.382;-0.002;2023-03-24T15:06:53;13.35;;;2.58;;
46719;SDS011;32452;51.382;-0.002;2023-03-24T15:09:38;11.20;;;2.78;;
46719;SDS011;32452;51.382;-0.002;2023-03-24T15:12:33;8.65;;;2.10;;
46719;SDS011;32452;51.382;-0.002;2023-03-24T15:15:20;12.07;;;2.45;;
46719;SDS011;32452;51.382;-0.002;2023-03-24T15:18:13;7.55;;;1.98;;
46719;SDS011;32452;51.382;-0.002;2023-03-24T15:21:12;9.70;;;2.10;;
46719;SDS011;32452;51.382;-0.002;2023-03-24T15:27:25;12.65;;;2.08;;
46719;SDS011;32452;51.382;-0.002;2023-03-24T15:30:16;13.70;;;2.35;;
46719;SDS011;32452;51.382;-0.002;2023-03-24T15:33:02;11.45;;;2.28;;
46719;SDS011;32452;51.382;-0.002;2023-03-24T15:35:53;9.05;;;2.05;;
46719;SDS011;32452;51.382;-0.002;2023-03-24T15:38:45;12.82;;;2.13;;
46719;SDS011;32452;51.382;-0.002;2023-03-24T15:41:34;11.65;;;2.00;;
46719;SDS011;32452;51.382;-0.002;2023-03-24T15:44:24;14.90;;;3.08;;
46719;SDS011;32452;51.382;-0.002;2023-03-24T16:01:57;12.00;;;2.33;;
46719;SDS011;32452;51.382;-0.002;2023-03-24T16:04:45;14.90;;;2.95;;
46719;SDS011;32452;51.382;-0.002;2023-03-24T16:07:52;13.45;;;2.60;;
46719;SDS011;32452;51.382;-0.002;2023-03-24T16:10:54;15.88;;;3.58;;
46719;SDS011;32452;51.382;-0.002;2023-03-24T16:13:45;17.52;;;2.85;;
46719;SDS011;32452;51.382;-0.002;2023-03-24T16:16:34;12.15;;;2.10;;
46719;SDS011;32452;51.382;-0.002;2023-03-24T16:19:22;11.80;;;2.35;;
46719;SDS011;32452;51.382;-0.002;2023-03-24T16:22:11;17.05;;;3.53;;
46719;SDS011;32452;51.382;-0.002;2023-03-24T16:24:57;18.02;;;2.60;;
46719;SDS011;32452;51.382;-0.002;2023-03-24T16:27:43;15.95;;;2.20;;
46719;SDS011;32452;51.382;-0.002;2023-03-24T16:30:28;11.00;;;2.22;;
46719;SDS011;32452;51.382;-0.002;2023-03-24T16:33:21;8.07;;;1.98;;
46719;SDS011;32452;51.382;-0.002;2023-03-24T16:36:08;12.48;;;2.30;;
46719;SDS011;32452;51.382;-0.002;2023-03-24T16:38:56;10.82;;;1.50;;
46719;SDS011;32452;51.382;-0.002;2023-03-24T16:41:43;17.63;;;4.30;;
46719;SDS011;32452;51.382;-0.002;2023-03-24T16:44:29;13.18;;;3.15;;
46719;SDS011;32452;51.382;-0.002;2023-03-24T16:47:14;14.88;;;2.83;;
46719;SDS011;32452;51.382;-0.002;2023-03-24T16:50:00;8.65;;;2.38;;
46719;SDS011;32452;51.382;-0.002;2023-03-24T16:52:45;16.48;;;2.95;;
46719;SDS011;32452;51.382;-0.002;2023-03-24T16:55:31;15.50;;;3.58;;
46719;SDS011;32452;51.382;-0.002;2023-03-24T16:58:16;10.98;;;2.67;;
46719;SDS011;32452;51.382;-0.002;2023-03-24T17:01:03;19.60;;;3.92;;
46719;SDS011;32452;51.382;-0.002;2023-03-24T17:04:02;14.20;;;2.67;;
46719;SDS011;32452;51.382;-0.002;2023-03-24T17:06:54;16.65;;;2.60;;
46719;SDS011;32452;51.382;-0.002;2023-03-24T17:09:39;12.25;;;2.65;;
46719;SDS011;32452;51.382;-0.002;2023-03-24T17:12:25;15.07;;;2.80;;
46719;SDS011;32452;51.382;-0.002;2023-03-24T17:15:22;14.73;;;2.72;;
46719;SDS011;32452;51.382;-0.002;2023-03-24T17:18:09;18.75;;;2.55;;
46719;SDS011;32452;51.382;-0.002;2023-03-24T17:20:55;16.45;;;2.67;;
46719;SDS011;32452;51.382;-0.002;2023-03-24T17:23:41;19.45;;;3.72;;
46719;SDS011;32452;51.382;-0.002;2023-03-24T17:26:27;14.73;;;2.53;;
46719;SDS011;32452;51.382;-0.002;2023-03-24T17:29:15;21.42;;;3.38;;
46719;SDS011;32452;51.382;-0.002;2023-03-24T17:32:01;18.38;;;4.28;;
46719;SDS011;32452;51.382;-0.002;2023-03-24T17:34:47;14.80;;;2.90;;
46719;SDS011;32452;51.382;-0.002;2023-03-24T17:37:32;18.13;;;4.10;;
46719;SDS011;32452;51.382;-0.002;2023-03-24T17:40:18;18.42;;;4.35;;
46719;SDS011;32452;51.382;-0.002;2023-03-24T17:43:04;14.75;;;3.00;;
46719;SDS011;32452;51.382;-0.002;2023-03-24T17:45:50;12.75;;;2.80;;
46719;SDS011;32452;51.382;-0.002;2023-03-24T17:48:35;6.65;;;1.50;;
46719;SDS011;32452;51.382;-0.002;2023-03-24T17:51:21;8.40;;;1.63;;
46719;SDS011;32452;51.382;-0.002;2023-03-24T17:54:07;8.50;;;1.45;;
46719;SDS011;32452;51.382;-0.002;2023-03-24T17:56:54;5.10;;;1.23;;
46719;SDS011;32452;51.382;-0.002;2023-03-24T17:59:40;7.68;;;1.30;;
46719;SDS011;32452;51.382;-0.002;2023-03-24T18:02:25;8.43;;;1.40;;
46719;SDS011;32452;51.382;-0.002;2023-03-24T18:05:11;12.40;;;2.45;;
46719;SDS011;32452;51.382;-0.002;2023-03-24T18:07:57;5.72;;;1.40;;
46719;SDS011;32452;51.382;-0.002;2023-03-24T18:10:42;5.03;;;1.20;;
46719;SDS011;32452;51.382;-0.002;2023-03-24T18:13:28;9.07;;;1.77;;
46719;SDS011;32452;51.382;-0.002;2023-03-24T18:16:14;6.55;;;1.85;;
46719;SDS011;32452;51.382;-0.002;2023-03-24T18:19:06;4.38;;;0.95;;
46719;SDS011;32452;51.382;-0.002;2023-03-24T18:21:52;6.82;;;0.80;;
46719;SDS011;32452;51.382;-0.002;2023-03-24T18:24:37;5.32;;;0.75;;
46719;SDS011;32452;51.382;-0.002;2023-03-24T18:27:25;3.85;;;0.68;;
46719;SDS011;32452;51.382;-0.002;2023-03-24T18:30:11;3.95;;;0.63;;
46719;SDS011;32452;51.382;-0.002;2023-03-24T18:32:58;5.28;;;1.10;;
46719;SDS011;32452;51.382;-0.002;2023-03-24T18:35:49;0.90;;;0.70;;
46719;SDS011;32452;51.382;-0.002;2023-03-24T18:38:36;1.75;;;0.77;;
46719;SDS011;32452;51.382;-0.002;2023-03-24T18:41:23;3.63;;;1.45;;
46719;SDS011;32452;51.382;-0.002;2023-03-24T18:44:11;1.55;;;0.47;;
46719;SDS011;32452;51.382;-0.002;2023-03-24T18:46:58;5.90;;;0.90;;
46719;SDS011;32452;51.382;-0.002;2023-03-24T18:49:45;5.47;;;1.00;;
46719;SDS011;32452;51.382;-0.002;2023-03-24T18:52:30;5.60;;;1.00;;
46719;SDS011;32452;51.382;-0.002;2023-03-24T18:55:17;10.05;;;1.67;;
46719;SDS011;32452;51.382;-0.002;2023-03-24T18:58:04;6.18;;;1.30;;
46719;SDS011;32452;51.382;-0.002;2023-03-24T19:00:53;10.50;;;1.60;;
46719;SDS011;32452;51.382;-0.002;2023-03-24T19:03:41;7.13;;;1.40;;